Time;durP1;ratioP1;P1;durP2;ratioP2;P2;SDS_P1;SDS_P2;PMS_P1;PMS_P2;Temp;Humidity;BMP_temperature;BMP_pressure;BME280_temperature;BME280_humidity;BME280_pressure;Samples;Min_cycle;Max_cycle;Signal;HPM_P1;HPM_P2
2020/12/23 00:01:11;;;;;;;34.77;19.93;;;;;;;2.75;100.00;97131.16;5017643;28;20333;-96
2020/12/23 00:03:38;;;;;;;38.93;19.73;;;;;;;2.74;100.00;97137.28;5018447;28;20280;-96
2020/12/23 00:06:04;;;;;;;38.83;18.87;;;;;;;2.75;100.00;97138.94;5018701;28;20204;-95
2020/12/23 00:08:33;;;;;;;20.67;13.67;;;;;;;2.90;100.00;97134.59;5017655;28;20203;-93
2020/12/23 00:11:00;;;;;;;21.20;13.43;;;;;;;2.80;100.00;97136.88;5017551;28;20188;-95
2020/12/23 00:13:27;;;;;;;20.43;13.70;;;;;;;2.74;100.00;97132.09;5018413;28;20195;-96
2020/12/23 00:15:54;;;;;;;24.30;14.67;;;;;;;2.75;100.00;97138.94;5018992;28;20223;-95
2020/12/23 00:18:21;;;;;;;19.93;13.30;;;;;;;2.75;100.00;97131.16;5023929;28;20292;-95
2020/12/23 00:20:47;;;;;;;15.93;13.40;;;;;;;2.90;100.00;97125.03;5023010;28;20203;-95
2020/12/23 00:23:16;;;;;;;16.03;12.13;;;;;;;2.72;100.00;97131.31;5026138;28;20359;-96
2020/12/23 00:25:44;;;;;;;18.90;13.33;;;;;;;2.78;100.00;97118.81;5027164;28;20549;-96
2020/12/23 00:28:12;;;;;;;17.43;12.23;;;;;;;2.89;100.00;97123.38;5022923;28;20558;-96
2020/12/23 00:30:39;;;;;;;21.60;14.00;;;;;;;2.75;100.00;97131.97;5022942;28;20202;-95
2020/12/23 00:33:05;;;;;;;23.00;14.93;;;;;;;2.71;100.00;97133.09;5023686;28;20203;-93
2020/12/23 00:35:32;;;;;;;19.53;13.37;;;;;;;2.66;100.00;97153.25;5022836;28;20222;-95
2020/12/23 00:37:59;;;;;;;19.37;14.93;;;;;;;2.67;100.00;97151.50;5024350;28;20203;-95
2020/12/23 00:40:26;;;;;;;23.80;16.00;;;;;;;2.66;100.00;97150.66;5026350;28;20203;-95
2020/12/23 00:42:57;;;;;;;24.73;17.77;;;;;;;2.65;100.00;97143.81;5024242;28;20231;-96
2020/12/23 00:45:24;;;;;;;21.77;13.73;;;;;;;2.75;100.00;97134.56;5029525;28;20268;-95
2020/12/23 00:47:50;;;;;;;19.10;13.07;;;;;;;2.75;100.00;97128.56;5026555;28;20200;-94
2020/12/23 00:50:17;;;;;;;17.13;11.93;;;;;;;2.72;100.00;97123.53;5022759;28;20210;-94
2020/12/23 00:52:44;;;;;;;14.47;11.63;;;;;;;2.79;100.00;97135.22;5024504;28;20235;-94
2020/12/23 00:55:12;;;;;;;18.37;12.87;;;;;;;2.88;100.00;97137.28;5022471;28;20210;-95
2020/12/23 00:57:39;;;;;;;36.27;21.20;;;;;;;2.74;100.00;97132.09;5024835;28;20200;-96
2020/12/23 01:00:07;;;;;;;28.27;19.27;;;;;;;2.73;100.00;97130.38;5024522;28;20199;-96
2020/12/23 01:02:34;;;;;;;35.77;22.67;;;;;;;2.78;100.00;97116.22;5023939;28;20266;-96
2020/12/23 01:05:00;;;;;;;29.83;19.03;;;;;;;2.78;100.00;97118.00;5028123;28;20218;-94
2020/12/23 01:07:27;;;;;;;21.83;16.60;;;;;;;2.84;100.00;97123.66;5027927;28;20223;-93
2020/12/23 01:09:54;;;;;;;25.77;17.30;;;;;;;3.04;100.00;97125.06;5025386;28;20195;-95
2020/12/23 01:12:21;;;;;;;17.80;13.43;;;;;;;3.03;100.00;97126.00;5027997;28;20203;-96
2020/12/23 01:14:48;;;;;;;16.93;11.30;;;;;;;2.97;100.00;97113.38;5030143;28;20190;-96
2020/12/23 01:17:17;;;;;;;16.83;12.10;;;;;;;2.81;100.00;97118.66;5029331;28;20207;-95
2020/12/23 01:19:44;;;;;;;15.70;11.83;;;;;;;2.80;100.00;97109.16;5027541;28;20257;-95
2020/12/23 01:22:10;;;;;;;15.30;12.10;;;;;;;2.73;100.00;97107.84;5024574;28;20262;-96
2020/12/23 01:24:37;;;;;;;14.97;11.60;;;;;;;2.86;100.00;97107.97;5023604;28;20206;-95
2020/12/23 01:27:04;;;;;;;16.37;11.10;;;;;;;2.89;100.00;97097.41;5024139;28;20203;-96
2020/12/23 01:29:31;;;;;;;18.77;12.37;;;;;;;2.75;100.00;97100.81;5034079;28;20179;-92
2020/12/23 01:31:58;;;;;;;15.80;11.77;;;;;;;2.77;100.00;97095.53;5039295;28;20183;-94
2020/12/23 01:34:25;;;;;;;17.97;12.83;;;;;;;2.70;100.00;97100.28;5039488;28;20187;-95
2020/12/23 01:36:52;;;;;;;19.77;12.10;;;;;;;2.75;100.00;97093.03;5039432;28;20183;-93
2020/12/23 01:39:19;;;;;;;19.70;12.97;;;;;;;2.67;100.00;97087.47;5037131;28;20183;-95
2020/12/23 01:41:46;;;;;;;18.80;12.50;;;;;;;2.71;100.00;97090.72;5036195;28;20219;-95
2020/12/23 01:44:13;;;;;;;17.47;12.27;;;;;;;2.84;100.00;97092.50;5036466;28;20203;-96
2020/12/23 01:46:41;;;;;;;19.53;13.03;;;;;;;2.72;100.00;97088.03;5036450;28;20191;-96
2020/12/23 01:49:08;;;;;;;22.40;12.20;;;;;;;2.80;100.00;97085.78;5033875;28;20192;-96
2020/12/23 01:51:37;;;;;;;18.47;13.40;;;;;;;2.76;100.00;97080.88;5035046;28;20231;-95
2020/12/23 01:54:04;;;;;;;19.30;12.80;;;;;;;2.71;100.00;97077.75;5037653;28;20215;-93
2020/12/23 01:56:31;;;;;;;21.40;13.90;;;;;;;2.65;100.00;97071.13;5038891;28;20223;-94
2020/12/23 01:58:58;;;;;;;20.83;12.70;;;;;;;2.65;100.00;97065.13;5038781;28;20182;-95
2020/12/23 02:01:28;;;;;;;18.07;13.57;;;;;;;2.74;100.00;97060.22;5039022;28;20180;-96
2020/12/23 02:03:55;;;;;;;22.53;14.47;;;;;;;2.80;100.00;97064.19;5038068;28;20171;-95
2020/12/23 02:06:22;;;;;;;20.37;13.40;;;;;;;2.66;100.00;97059.00;5036693;28;20180;-96
2020/12/23 02:08:52;;;;;;;21.37;13.50;;;;;;;2.62;100.00;97058.34;5035063;28;20226;-95
2020/12/23 02:11:19;;;;;;;25.97;14.90;;;;;;;2.72;100.00;97058.63;5036925;28;20184;-95
2020/12/23 02:13:46;;;;;;;18.13;12.73;;;;;;;2.71;100.00;97050.03;5037390;28;20187;-95
2020/12/23 02:16:14;;;;;;;21.33;14.50;;;;;;;2.63;100.00;97057.41;5037000;28;20199;-96
2020/12/23 02:18:43;;;;;;;22.07;14.63;;;;;;;2.55;100.00;97057.03;5036025;28;20230;-95
2020/12/23 02:21:10;;;;;;;21.70;13.33;;;;;;;2.65;100.00;97050.38;5036224;28;20242;-95
2020/12/23 02:23:39;;;;;;;21.23;14.57;;;;;;;2.62;100.00;97046.19;5036347;28;20230;-95
2020/12/23 02:26:05;;;;;;;21.77;13.97;;;;;;;2.59;100.00;97046.38;5035916;28;20194;-96
2020/12/23 02:28:32;;;;;;;19.60;13.50;;;;;;;2.63;100.00;97041.84;5036521;28;20211;-95
2020/12/23 02:31:01;;;;;;;26.70;15.53;;;;;;;2.61;100.00;97054.09;5050456;23;20235;-96
2020/12/23 02:33:28;;;;;;;24.67;16.70;;;;;;;2.62;100.00;97051.38;5036427;28;20203;-95
2020/12/23 02:35:55;;;;;;;22.03;14.00;;;;;;;2.62;100.00;97059.16;5035788;28;20187;-95
2020/12/23 02:38:22;;;;;;;20.43;14.70;;;;;;;2.65;100.00;97057.34;5035762;28;20226;-95
2020/12/23 02:40:49;;;;;;;19.87;12.70;;;;;;;2.62;100.00;97061.75;5037851;28;20210;-95
2020/12/23 02:43:16;;;;;;;21.87;12.83;;;;;;;2.73;100.00;97058.53;5037070;28;20219;-96
2020/12/23 02:45:43;;;;;;;21.73;11.97;;;;;;;2.75;100.00;97055.88;5037327;28;20267;-95
2020/12/23 02:48:10;;;;;;;22.80;14.10;;;;;;;2.69;100.00;97056.22;5036573;28;20188;-95
2020/12/23 02:50:37;;;;;;;21.43;14.23;;;;;;;2.71;100.00;97055.22;5036656;28;20210;-95
2020/12/23 02:53:04;;;;;;;21.23;13.53;;;;;;;2.72;100.00;97056.03;5037222;28;20199;-95
2020/12/23 02:55:30;;;;;;;17.83;12.23;;;;;;;2.80;100.00;97049.44;5036869;28;20200;-92
2020/12/23 02:57:58;;;;;;;22.70;14.27;;;;;;;2.67;100.00;97051.13;5023587;28;20242;-94
2020/12/23 03:00:25;;;;;;;21.13;13.03;;;;;;;2.74;100.00;97049.00;5014027;28;20200;-95
2020/12/23 03:02:52;;;;;;;20.50;12.70;;;;;;;2.83;100.00;97041.47;5013615;28;20297;-95
2020/12/23 03:05:19;;;;;;;20.60;13.23;;;;;;;2.84;100.00;97039.72;5013909;28;20199;-96
2020/12/23 03:07:45;;;;;;;23.47;13.10;;;;;;;2.84;100.00;97039.72;5013640;28;20278;-95
2020/12/23 03:10:12;;;;;;;26.53;15.23;;;;;;;2.75;100.00;97048.91;5014319;28;20283;-96
2020/12/23 03:12:39;;;;;;;22.87;14.87;;;;;;;2.78;100.00;97040.94;5013874;28;20202;-95
2020/12/23 03:15:07;;;;;;;26.23;14.17;;;;;;;2.80;100.00;97046.03;5013877;28;20605;-95
2020/12/23 03:17:34;;;;;;;27.23;15.97;;;;;;;2.79;100.00;97041.78;5013414;28;20191;-95
2020/12/23 03:20:01;;;;;;;29.53;18.93;;;;;;;2.71;100.00;97036.22;5016599;28;20633;-96
2020/12/23 03:22:28;;;;;;;27.93;17.60;;;;;;;2.80;100.00;97044.25;5016734;28;20270;-95
2020/12/23 03:24:54;;;;;;;24.67;14.57;;;;;;;2.87;100.00;97039.53;5017496;28;20242;-95
2020/12/23 03:27:21;;;;;;;25.30;16.17;;;;;;;2.75;100.00;97035.09;5017668;28;20203;-95
2020/12/23 03:29:48;;;;;;;22.77;13.83;;;;;;;2.58;100.00;97041.28;5017195;28;20200;-96
2020/12/23 03:32:16;;;;;;;25.17;15.10;;;;;;;2.58;100.00;97034.34;5015930;28;20203;-96
2020/12/23 03:34:43;;;;;;;32.07;16.17;;;;;;;2.58;100.00;97031.72;5016185;28;20331;-94
2020/12/23 03:37:10;;;;;;;25.30;15.70;;;;;;;2.54;100.00;97022.47;5016100;28;20199;-95
2020/12/23 03:39:37;;;;;;;32.27;17.10;;;;;;;2.51;100.00;97025.25;5015658;28;20235;-95
2020/12/23 03:42:04;;;;;;;28.23;17.60;;;;;;;2.54;100.00;97026.81;5015252;28;20230;-95
2020/12/23 03:44:31;;;;;;;30.13;16.50;;;;;;;2.53;100.00;97033.78;5015857;28;20210;-95
2020/12/23 03:46:58;;;;;;;28.57;16.97;;;;;;;2.55;100.00;97031.91;5015596;28;20357;-95
2020/12/23 03:49:25;;;;;;;27.73;17.33;;;;;;;2.55;100.00;97044.06;5015612;28;20663;-94
2020/12/23 03:51:52;;;;;;;25.93;17.17;;;;;;;2.62;100.00;97042.78;5015344;28;20200;-95
2020/12/23 03:54:19;;;;;;;27.50;17.20;;;;;;;2.71;100.00;97050.03;5015413;28;20235;-95
2020/12/23 03:56:46;;;;;;;28.97;16.57;;;;;;;2.73;100.00;97057.72;5015054;28;20701;-95
2020/12/23 03:59:13;;;;;;;26.93;17.30;;;;;;;2.59;100.00;97059.34;5015751;28;20200;-95
2020/12/23 04:01:40;;;;;;;28.37;17.67;;;;;;;2.68;100.00;97051.97;5014919;28;20199;-95
2020/12/23 04:04:06;;;;;;;32.73;16.73;;;;;;;2.75;100.00;97056.69;5015097;28;20192;-95
2020/12/23 04:06:34;;;;;;;25.17;16.93;;;;;;;2.69;100.00;97056.22;5014899;28;20699;-96
2020/12/23 04:09:01;;;;;;;26.57;17.67;;;;;;;2.71;100.00;97055.22;5014967;28;20198;-95
2020/12/23 04:11:28;;;;;;;29.60;16.97;;;;;;;2.74;100.00;97059.41;5015395;28;20287;-94
2020/12/23 04:13:54;;;;;;;31.80;18.77;;;;;;;2.68;100.00;97051.97;5015289;28;20202;-92
2020/12/23 04:16:21;;;;;;;31.77;20.40;;;;;;;2.70;100.00;97050.09;5015326;28;20282;-94
2020/12/23 04:18:48;;;;;;;30.00;18.23;;;;;;;2.69;100.00;97038.88;5014959;28;20199;-95
2020/12/23 04:21:15;;;;;;;32.00;18.10;;;;;;;2.69;100.00;97038.88;5014884;28;20275;-94
2020/12/23 04:23:53;;;;;;;33.83;18.60;;;;;;;2.87;100.00;97039.53;5014444;28;20258;-95
2020/12/23 04:26:19;;;;;;;33.17;19.80;;;;;;;2.81;100.00;97037.34;5015689;28;20653;-95
2020/12/23 04:28:46;;;;;;;27.30;17.87;;;;;;;2.75;100.00;97038.53;5014969;28;20639;-95
2020/12/23 04:31:13;;;;;;;30.27;19.20;;;;;;;2.78;100.00;97046.13;4983530;28;908386;-95
2020/12/23 04:33:40;;;;;;;30.73;18.03;;;;;;;2.93;100.00;97039.19;5015289;28;20234;-96
2020/12/23 04:36:06;;;;;;;28.57;18.90;;;;;;;2.76;100.00;97037.59;5015513;28;20203;-95
2020/12/23 04:38:33;;;;;;;28.47;18.33;;;;;;;2.90;100.00;97034.16;5015457;28;20215;-95
2020/12/23 04:41:02;;;;;;;28.13;18.50;;;;;;;2.79;100.00;97036.56;5015584;28;20203;-95
2020/12/23 04:43:29;;;;;;;27.83;17.47;;;;;;;2.89;100.00;97037.69;5016116;28;20270;-95
2020/12/23 04:49:25;;;;;;;29.90;18.33;;;;;;;2.73;100.00;97040.38;4825929;29;20720;-96
2020/12/23 04:51:53;;;;;;;35.07;20.47;;;;;;;2.70;100.00;97043.16;4862863;29;20205;-96
2020/12/23 04:54:21;;;;;;;30.43;18.83;;;;;;;2.75;100.00;97048.06;4862645;29;20206;-96
2020/12/23 04:56:49;;;;;;;36.70;24.80;;;;;;;2.80;100.00;97059.00;4862190;29;20213;-94
2020/12/23 04:59:16;;;;;;;33.70;21.57;;;;;;;2.93;100.00;97043.53;4861270;29;20202;-95
2020/12/23 05:01:43;;;;;;;30.80;20.03;;;;;;;2.90;100.00;97054.09;4861007;29;20281;-93
2020/12/23 05:04:10;;;;;;;29.20;19.80;;;;;;;2.85;100.00;97055.22;4860594;29;20719;-94
2020/12/23 05:06:37;;;;;;;29.03;20.80;;;;;;;2.85;100.00;97051.78;4859932;29;20280;-94
2020/12/23 05:09:05;;;;;;;32.83;21.43;;;;;;;2.93;100.00;97053.94;4860193;29;20660;-95
2020/12/23 05:11:37;;;;;;;35.83;21.17;;;;;;;2.84;100.00;97063.94;5225350;23;20245;-93
2020/12/23 05:14:08;;;;;;;28.77;19.63;;;;;;;2.82;100.00;97060.59;4976422;28;20647;-93
2020/12/23 05:16:49;;;;;;;33.07;21.23;;;;;;;2.77;100.00;97072.16;4957444;28;20270;-91
2020/12/23 05:19:18;;;;;;;32.10;19.17;;;;;;;2.83;100.00;97066.63;4961458;28;20362;-91
2020/12/23 05:21:45;;;;;;;32.77;19.73;;;;;;;2.97;100.00;97061.44;4975782;28;20553;-92
2020/12/23 05:24:12;;;;;;;30.17;18.60;;;;;;;2.86;100.00;97067.28;4975841;28;20592;-93
2020/12/23 05:26:41;;;;;;;30.00;18.70;;;;;;;2.88;100.00;97058.56;4975710;28;20211;-90
2020/12/23 05:29:16;;;;;;;30.17;18.23;;;;;;;2.95;100.00;97065.91;4975979;28;20200;-94
2020/12/23 05:31:43;;;;;;;26.17;15.60;;;;;;;2.99;100.00;97059.59;4975918;28;20185;-95
2020/12/23 05:34:10;;;;;;;24.40;17.13;;;;;;;2.92;100.00;97058.28;4975931;28;20201;-93
2020/12/23 05:36:40;;;;;;;32.10;17.43;;;;;;;2.87;100.00;97062.91;4975378;28;20570;-93
2020/12/23 05:41:58;;;;;;;72.07;43.97;;;;;;;3.12;100.00;97062.28;4897408;29;20292;-93
2020/12/23 05:44:26;;;;;;;78.03;46.33;;;;;;;3.06;100.00;97058.28;4897355;29;20196;-96
2020/12/23 05:46:54;;;;;;;51.70;32.17;;;;;;;3.02;100.00;97069.78;4897169;29;20217;-95
2020/12/23 05:49:23;;;;;;;46.20;28.43;;;;;;;3.07;100.00;97059.94;4897560;29;20215;-95
2020/12/23 05:52:14;;;;;;;33.93;20.63;;;;;;;3.11;100.00;97070.97;4897705;29;20689;-95
2020/12/23 05:54:52;;;;;;;35.87;23.47;;;;;;;3.07;100.00;97065.16;4897432;29;20589;-96
2020/12/23 05:57:19;;;;;;;67.27;41.33;;;;;;;3.00;100.00;97069.03;4897106;29;20267;-96
2020/12/23 05:59:47;;;;;;;41.63;27.20;;;;;;;3.04;100.00;97065.31;4897002;29;20215;-95
2020/12/23 06:02:14;;;;;;;36.10;21.53;;;;;;;3.16;100.00;97065.53;4896759;29;20235;-96
2020/12/23 06:04:43;;;;;;;31.93;20.70;;;;;;;3.10;100.00;97074.53;4896925;29;20208;-94
2020/12/23 06:07:11;;;;;;;28.17;19.13;;;;;;;3.24;100.00;97073.69;4896773;29;20203;-95
2020/12/23 06:09:39;;;;;;;42.43;23.90;;;;;;;3.08;100.00;97066.84;4896952;29;20231;-95
2020/12/23 06:12:17;;;;;;;31.77;22.47;;;;;;;3.09;100.00;97065.91;4913848;29;20242;-96
2020/12/23 06:14:56;;;;;;;37.00;23.23;;;;;;;3.00;100.00;97074.22;4934869;29;20202;-94
2020/12/23 06:17:24;;;;;;;39.37;25.03;;;;;;;3.08;100.00;97069.44;4934484;29;20202;-96
2020/12/23 06:19:55;;;;;;;43.80;30.60;;;;;;;3.10;100.00;97071.94;4981711;28;20212;-94
2020/12/23 06:22:24;;;;;;;36.83;24.87;;;;;;;3.04;100.00;97075.72;4994311;28;20263;-94
2020/12/23 06:24:51;;;;;;;37.37;24.07;;;;;;;2.92;100.00;97084.25;4993746;28;20227;-94
2020/12/23 06:27:18;;;;;;;35.20;21.83;;;;;;;2.83;100.00;97089.97;4993596;28;20283;-95
2020/12/23 06:29:47;;;;;;;34.37;22.33;;;;;;;2.84;100.00;97076.06;4993758;28;20586;-95
2020/12/23 06:32:21;;;;;;;36.00;21.93;;;;;;;2.84;100.00;97086.44;4993516;28;20291;-94
2020/12/23 06:34:56;;;;;;;31.90;20.20;;;;;;;2.79;100.00;97089.31;4993666;28;20184;-96
2020/12/23 06:37:25;;;;;;;30.03;18.40;;;;;;;2.88;100.00;97095.75;4993699;28;20228;-94
2020/12/23 06:39:54;;;;;;;30.93;18.80;;;;;;;2.87;100.00;97088.88;4994008;28;20673;-94
2020/12/23 06:42:30;;;;;;;35.30;21.87;;;;;;;2.96;100.00;97092.69;4993582;28;20228;-94
2020/12/23 06:45:03;;;;;;;33.40;21.03;;;;;;;3.00;100.00;97092.41;4993346;28;20646;-94
2020/12/23 06:47:31;;;;;;;36.57;23.77;;;;;;;3.13;100.00;97096.88;4993883;28;20576;-94
2020/12/23 06:49:59;;;;;;;34.47;23.10;;;;;;;3.18;100.00;97090.47;4993675;28;20238;-95
2020/12/23 06:52:31;;;;;;;40.07;25.43;;;;;;;3.20;100.00;97101.63;4993695;28;20200;-95
2020/12/23 06:55:01;;;;;;;42.07;26.43;;;;;;;3.32;100.00;97100.84;4996538;28;20211;-93
2020/12/23 06:57:55;;;;;;;40.33;27.57;;;;;;;3.23;100.00;97093.63;4997265;28;20208;-93
2020/12/23 07:00:35;;;;;;;40.03;26.67;;;;;;;3.07;100.00;97101.50;4997327;28;20196;-94
2020/12/23 07:03:08;;;;;;;35.83;23.50;;;;;;;2.99;100.00;97103.72;4997110;28;20235;-94
2020/12/23 07:05:49;;;;;;;28.87;19.90;;;;;;;2.98;100.00;97099.47;4997593;28;20580;-94
2020/12/23 07:08:17;;;;;;;33.07;20.80;;;;;;;3.02;100.00;97100.13;4997056;28;20199;-95
2020/12/23 07:10:47;;;;;;;30.40;18.60;;;;;;;3.13;100.00;97102.91;4997111;28;20239;-93
2020/12/23 07:13:17;;;;;;;28.57;16.87;;;;;;;3.18;100.00;97106.06;4997740;28;20262;-94
2020/12/23 07:15:45;;;;;;;34.47;22.20;;;;;;;3.07;100.00;97108.47;4997175;28;20585;-94
2020/12/23 07:18:14;;;;;;;33.07;24.70;;;;;;;3.12;100.00;97113.38;4997272;28;20204;-94
2020/12/23 07:20:45;;;;;;;35.57;27.10;;;;;;;3.19;100.00;97104.31;4997082;28;20207;-94
2020/12/23 07:23:13;;;;;;;37.87;23.37;;;;;;;3.16;100.00;97120.09;4996739;28;20255;-94
2020/12/23 07:25:45;;;;;;;36.67;23.77;;;;;;;3.13;100.00;97112.47;4996889;28;20204;-94
2020/12/23 07:28:12;;;;;;;34.47;20.80;;;;;;;3.15;100.00;97118.38;4997098;28;20184;-94
2020/12/23 07:30:41;;;;;;;32.33;19.47;;;;;;;3.17;100.00;97117.38;4997372;28;20196;-93
2020/12/23 07:33:12;;;;;;;36.83;23.67;;;;;;;3.36;100.00;97118.84;4996971;28;20223;-94
2020/12/23 07:35:43;;;;;;;30.13;20.53;;;;;;;3.34;100.00;97130.19;4997369;28;20224;-93
2020/12/23 07:38:10;;;;;;;31.77;22.07;;;;;;;3.38;100.00;97119.63;4997004;28;20189;-93
2020/12/23 07:40:37;;;;;;;37.73;24.70;;;;;;;3.38;100.00;97123.03;4996760;28;20264;-94
2020/12/23 07:43:05;;;;;;;41.00;26.37;;;;;;;3.64;100.00;97133.59;4996475;28;20263;-93
2020/12/23 07:45:34;;;;;;;36.60;24.50;;;;;;;3.48;100.00;97128.53;4996887;28;20215;-93
2020/12/23 07:48:02;;;;;;;42.43;26.47;;;;;;;3.42;100.00;97127.13;4996578;28;20199;-94
2020/12/23 07:50:31;;;;;;;39.57;25.90;;;;;;;3.56;100.00;97129.69;4996408;28;20298;-92
2020/12/23 07:53:10;;;;;;;42.07;27.57;;;;;;;3.62;100.00;97122.47;4996539;28;20193;-94
2020/12/23 07:55:38;;;;;;;47.03;25.53;;;;;;;3.65;100.00;97130.09;4996309;28;20197;-93
2020/12/23 07:58:05;;;;;;;36.00;23.20;;;;;;;3.72;100.00;97132.22;4996978;28;20193;-94
2020/12/23 08:00:32;;;;;;;33.10;21.50;;;;;;;3.58;100.00;97132.22;4996301;28;20650;-94
2020/12/23 08:02:59;;;;;;;27.63;18.77;;;;;;;3.59;100.00;97133.88;4996314;28;20224;-93
2020/12/23 08:05:26;;;;;;;33.60;22.47;;;;;;;3.57;100.00;97130.56;4995731;28;20200;-93
2020/12/23 08:07:53;;;;;;;29.90;18.43;;;;;;;3.58;100.00;97117.47;4995871;28;20192;-93
2020/12/23 08:10:21;;;;;;;32.57;18.30;;;;;;;3.60;100.00;97116.53;4996377;28;20254;-94
2020/12/23 08:12:56;;;;;;;28.97;19.40;;;;;;;3.66;100.00;97118.75;4995947;28;20196;-93
2020/12/23 08:15:23;;;;;;;37.13;23.77;;;;;;;3.75;100.00;97115.59;4996634;28;20548;-92
2020/12/23 08:18:00;;;;;;;39.90;28.37;;;;;;;4.13;100.00;97118.38;4996633;28;20688;-93
2020/12/23 08:20:27;;;;;;;29.90;23.30;;;;;;;4.01;100.00;97108.72;4996378;28;20188;-94
2020/12/23 08:22:54;;;;;;;30.27;22.23;;;;;;;4.03;100.00;97109.47;4995716;28;20267;-94
2020/12/23 08:25:24;;;;;;;32.73;19.47;;;;;;;4.00;100.00;97110.50;4996101;28;20196;-93
2020/12/23 08:27:53;;;;;;;36.60;22.57;;;;;;;4.13;100.00;97113.16;4995705;28;20193;-93
2020/12/23 08:30:21;;;;;;;34.10;21.10;;;;;;;4.23;100.00;97108.22;4996930;28;20196;-93
2020/12/23 08:32:57;;;;;;;30.17;17.80;;;;;;;4.23;100.00;97110.81;4995776;28;20239;-92
2020/12/23 08:35:28;;;;;;;30.77;20.13;;;;;;;4.32;100.00;97110.19;4995580;28;20199;-93
2020/12/23 08:37:55;;;;;;;33.90;21.20;;;;;;;4.30;100.00;97099.06;4995636;28;20204;-94
2020/12/23 08:40:24;;;;;;;27.43;19.97;;;;;;;4.24;100.00;97102.06;4995917;28;20235;-93
2020/12/23 08:42:52;;;;;;;25.30;16.93;;;;;;;4.44;100.00;97088.59;4995721;28;20600;-94
2020/12/23 08:45:24;;;;;;;28.13;19.53;;;;;;;4.48;100.00;97089.22;4995602;28;20193;-93
2020/12/23 08:47:52;;;;;;;23.93;14.60;;;;;;;4.29;100.00;97092.19;4995862;28;20598;-94
2020/12/23 08:50:20;;;;;;;20.70;15.70;;;;;;;4.33;100.00;97082.41;4996509;28;20244;-94
2020/12/23 08:52:47;;;;;;;16.00;11.23;;;;;;;4.27;100.00;97083.66;4995939;28;20204;-92
2020/12/23 08:55:15;;;;;;;26.63;15.10;;;;;;;4.32;100.00;97072.94;4995764;28;20204;-94
2020/12/23 08:57:45;;;;;;;17.60;11.70;;;;;;;4.39;100.00;97080.25;4995595;28;20207;-94
2020/12/23 09:00:17;;;;;;;23.97;13.87;;;;;;;4.48;100.00;97074.44;4995608;28;20203;-94
2020/12/23 09:02:45;;;;;;;19.07;13.43;;;;;;;4.47;100.00;97070.19;4996075;28;20251;-92
2020/12/23 09:05:31;;;;;;;21.60;14.20;;;;;;;4.57;100.00;97072.16;4995192;28;20203;-94
2020/12/23 09:08:05;;;;;;;21.77;13.43;;;;;;;4.73;100.00;97072.81;4995669;28;20223;-93
2020/12/23 09:10:33;;;;;;;17.87;13.33;;;;;;;4.72;100.00;97071.97;4995473;28;20323;-94
2020/12/23 09:13:12;;;;;;;20.27;13.87;;;;;;;4.76;100.00;97060.41;4995607;28;20204;-91
2020/12/23 09:15:39;;;;;;;16.93;12.97;;;;;;;5.03;100.00;97058.66;4995189;28;20199;-95
2020/12/23 09:18:11;;;;;;;21.47;14.47;;;;;;;5.22;100.00;97043.41;4994478;28;20212;-93
2020/12/23 09:20:38;;;;;;;21.03;14.50;;;;;;;5.08;100.00;97056.56;4995513;28;20223;-94
2020/12/23 09:23:06;;;;;;;18.00;12.40;;;;;;;5.06;100.00;97045.41;4995866;28;20314;-93
2020/12/23 09:25:33;;;;;;;14.60;11.70;;;;;;;5.18;100.00;97037.56;4995247;28;20256;-95
2020/12/23 09:28:07;;;;;;;16.27;10.77;;;;;;;5.24;100.00;97041.53;4995527;28;20216;-94
2020/12/23 09:30:37;;;;;;;18.30;13.27;;;;;;;5.11;100.00;97036.34;4995502;28;20203;-93
2020/12/23 09:33:06;;;;;;;22.73;15.17;;;;;;;4.99;100.00;97040.63;4996818;28;20224;-94
2020/12/23 09:35:33;;;;;;;23.50;17.67;;;;;;;5.07;100.00;97042.69;4995223;28;20193;-93
2020/12/23 09:38:11;;;;;;;25.57;17.83;;;;;;;5.17;100.00;97037.69;4996017;28;20200;-95
2020/12/23 09:40:40;;;;;;;24.10;15.90;;;;;;;5.31;100.00;97040.16;4995117;28;20200;-94
2020/12/23 09:43:12;;;;;;;20.73;15.40;;;;;;;5.24;100.00;97025.91;4995646;28;20240;-93
2020/12/23 09:45:41;;;;;;;26.40;17.07;;;;;;;5.19;100.00;97023.59;4995273;28;20222;-94
2020/12/23 09:48:08;;;;;;;23.07;18.30;;;;;;;5.16;100.00;97026.44;4994691;28;20203;-92
2020/12/23 09:50:34;;;;;;;24.73;18.97;;;;;;;5.16;100.00;97013.41;4994662;28;20238;-93
2020/12/23 09:53:02;;;;;;;28.37;19.40;;;;;;;5.31;100.00;97011.50;4994402;28;20200;-94
2020/12/23 09:55:29;;;;;;;27.80;18.93;;;;;;;5.28;100.00;97011.72;4994472;28;20243;-94
2020/12/23 09:57:57;;;;;;;22.10;15.17;;;;;;;5.36;100.00;97008.56;4993860;28;20204;-93
2020/12/23 10:00:27;;;;;;;24.40;17.23;;;;;;;5.44;100.00;97004.47;4994181;28;20203;-94
2020/12/23 10:02:55;;;;;;;20.93;14.73;;;;;;;5.50;100.00;97003.19;4994129;28;20697;-92
2020/12/23 10:05:22;;;;;;;16.73;11.13;;;;;;;5.60;100.00;97006.00;4994101;28;20204;-94
2020/12/23 10:07:49;;;;;;;15.33;10.50;;;;;;;5.61;100.00;97000.69;4994234;28;20272;-96
2020/12/23 10:10:16;;;;;;;14.17;11.20;;;;;;;5.71;100.00;97003.44;4993766;28;20211;-93
2020/12/23 10:12:43;;;;;;;16.03;11.30;;;;;;;6.06;100.00;96997.47;4993904;28;20223;-92
2020/12/23 10:15:09;;;;;;;17.57;11.37;;;;;;;6.88;100.00;96990.41;4994143;28;20196;-94
2020/12/23 10:17:37;;;;;;;19.13;12.10;;;;;;;7.57;100.00;96979.78;4993729;28;20235;-92
2020/12/23 10:20:05;;;;;;;18.17;12.73;;;;;;;7.66;100.00;96965.97;4994558;28;20228;-94
2020/12/23 10:22:32;;;;;;;14.93;11.63;;;;;;;7.55;100.00;96952.91;4994295;28;20664;-93
2020/12/23 10:25:00;;;;;;;17.57;12.10;;;;;;;7.99;100.00;96953.72;4993911;28;20192;-92
2020/12/23 10:27:27;;;;;;;13.20;10.13;;;;;;;8.25;100.00;96947.16;4994739;28;20200;-94
2020/12/23 10:29:54;;;;;;;11.27;9.70;;;;;;;8.34;100.00;96943.75;4994587;28;20207;-93
2020/12/23 10:32:20;;;;;;;12.20;8.57;;;;;;;8.48;100.00;96939.19;4994158;28;20565;-93
2020/12/23 10:34:48;;;;;;;10.80;9.07;;;;;;;8.16;100.00;96936.63;4994221;28;20211;-93
2020/12/23 10:37:19;;;;;;;10.60;8.47;;;;;;;8.10;100.00;96940.56;4995670;28;20644;-94
2020/12/23 10:39:46;;;;;;;13.27;9.37;;;;;;;8.14;100.00;96946.38;4995875;28;20748;-93
2020/12/23 10:42:13;;;;;;;11.30;9.00;;;;;;;8.27;100.00;96932.13;4994752;28;20192;-94
2020/12/23 10:44:39;;;;;;;11.63;9.60;;;;;;;8.05;100.00;96948.81;4995758;28;20231;-93
2020/12/23 10:47:06;;;;;;;14.57;9.73;;;;;;;7.74;100.00;96941.81;4994069;28;20200;-93
2020/12/23 10:49:33;;;;;;;13.87;10.03;;;;;;;7.69;100.00;96946.56;4993828;28;20211;-94
2020/12/23 10:52:00;;;;;;;13.73;10.27;;;;;;;7.63;100.00;96950.53;4993798;28;20197;-93
2020/12/23 10:54:29;;;;;;;15.37;10.53;;;;;;;7.54;100.00;96948.63;4993806;28;20286;-94
2020/12/23 10:56:58;;;;;;;17.13;11.03;;;;;;;7.56;100.00;96951.97;4993466;28;20204;-94
2020/12/23 10:59:25;;;;;;;15.63;11.47;;;;;;;7.71;100.00;96950.72;4993598;28;20270;-92
2020/12/23 11:01:53;;;;;;;14.27;10.80;;;;;;;7.49;100.00;96942.94;4993355;28;20243;-93
2020/12/23 11:04:20;;;;;;;15.63;11.40;;;;;;;7.51;100.00;96943.66;4993603;28;20704;-92
2020/12/23 11:06:48;;;;;;;38.80;27.03;;;;;;;7.43;100.00;96946.88;4995135;28;20197;-92
2020/12/23 11:09:22;;;;;;;44.30;31.53;;;;;;;7.22;100.00;96943.34;4995226;28;20196;-93
2020/12/23 11:11:51;;;;;;;28.67;19.67;;;;;;;7.25;100.00;96940.50;4995235;28;20281;-92
2020/12/23 11:14:18;;;;;;;20.50;14.77;;;;;;;7.35;100.00;96936.22;4994391;28;20263;-93
2020/12/23 11:16:47;;;;;;;22.40;15.97;;;;;;;7.60;100.00;96928.03;4996556;28;20230;-92
2020/12/23 11:19:14;;;;;;;15.73;12.07;;;;;;;7.69;100.00;96923.00;4993892;28;20314;-93
2020/12/23 11:21:41;;;;;;;18.77;14.43;;;;;;;7.59;100.00;96925.56;4994085;28;20200;-92
2020/12/23 11:24:09;;;;;;;16.40;12.73;;;;;;;7.54;100.00;96931.16;4993636;28;20286;-92
2020/12/23 11:26:36;;;;;;;17.00;10.67;;;;;;;7.38;100.00;96928.94;4993426;28;20618;-93
2020/12/23 11:29:04;;;;;;;18.17;14.00;;;;;;;7.59;100.00;96923.78;4993478;28;20209;-93